sensor_id;sensor_type;location;lat;lon;timestamp;P1;durP1;ratioP1;P2;durP2;ratioP2
53519;SDS011;39397;53.204;5.778;2023-12-07T00:01:41;12.43;;;7.22;;
53519;SDS011;39397;53.204;5.778;2023-12-07T00:04:07;11.60;;;7.38;;
53519;SDS011;39397;53.204;5.778;2023-12-07T00:06:33;12.75;;;7.80;;
53519;SDS011;39397;53.204;5.778;2023-12-07T00:08:58;14.50;;;8.60;;
53519;SDS011;39397;53.204;5.778;2023-12-07T00:11:26;10.70;;;6.65;;
53519;SDS011;39397;53.204;5.778;2023-12-07T00:13:52;11.35;;;7.05;;
53519;SDS011;39397;53.204;5.778;2023-12-07T00:16:17;9.40;;;6.72;;
53519;SDS011;39397;53.204;5.778;2023-12-07T00:18:43;10.85;;;6.03;;
53519;SDS011;39397;53.204;5.778;2023-12-07T00:21:09;8.10;;;5.88;;
53519;SDS011;39397;53.204;5.778;2023-12-07T00:23:35;8.75;;;5.68;;
53519;SDS011;39397;53.204;5.778;2023-12-07T00:26:03;9.95;;;5.90;;
53519;SDS011;39397;53.204;5.778;2023-12-07T00:28:29;8.93;;;5.97;;
53519;SDS011;39397;53.204;5.778;2023-12-07T00:30:55;10.25;;;5.90;;
53519;SDS011;39397;53.204;5.778;2023-12-07T00:33:21;10.52;;;6.45;;
53519;SDS011;39397;53.204;5.778;2023-12-07T00:35:47;10.48;;;6.55;;
53519;SDS011;39397;53.204;5.778;2023-12-07T00:38:13;10.02;;;5.68;;
53519;SDS011;39397;53.204;5.778;2023-12-07T00:40:39;9.05;;;5.70;;
53519;SDS011;39397;53.204;5.778;2023-12-07T00:43:08;9.93;;;5.93;;
53519;SDS011;39397;53.204;5.778;2023-12-07T00:45:33;15.40;;;6.03;;
53519;SDS011;39397;53.204;5.778;2023-12-07T00:47:59;8.63;;;6.03;;
53519;SDS011;39397;53.204;5.778;2023-12-07T00:50:25;12.65;;;6.43;;
53519;SDS011;39397;53.204;5.778;2023-12-07T00:52:51;12.48;;;6.60;;
53519;SDS011;39397;53.204;5.778;2023-12-07T00:55:16;11.43;;;6.38;;
53519;SDS011;39397;53.204;5.778;2023-12-07T00:57:42;12.05;;;6.28;;
53519;SDS011;39397;53.204;5.778;2023-12-07T01:00:08;9.55;;;6.72;;
53519;SDS011;39397;53.204;5.778;2023-12-07T01:02:35;10.75;;;6.70;;
53519;SDS011;39397;53.204;5.778;2023-12-07T01:05:01;12.18;;;6.72;;
53519;SDS011;39397;53.204;5.778;2023-12-07T01:07:26;11.13;;;6.72;;
53519;SDS011;39397;53.204;5.778;2023-12-07T01:09:52;9.43;;;5.93;;
53519;SDS011;39397;53.204;5.778;2023-12-07T01:12:18;9.73;;;7.15;;
53519;SDS011;39397;53.204;5.778;2023-12-07T01:14:44;12.30;;;6.53;;
53519;SDS011;39397;53.204;5.778;2023-12-07T01:17:09;11.93;;;5.90;;
53519;SDS011;39397;53.204;5.778;2023-12-07T01:19:35;10.05;;;5.57;;
53519;SDS011;39397;53.204;5.778;2023-12-07T01:22:03;12.25;;;6.35;;
53519;SDS011;39397;53.204;5.778;2023-12-07T01:24:29;9.75;;;5.68;;
53519;SDS011;39397;53.204;5.778;2023-12-07T01:26:55;8.07;;;5.85;;
53519;SDS011;39397;53.204;5.778;2023-12-07T01:29:21;9.23;;;5.72;;
53519;SDS011;39397;53.204;5.778;2023-12-07T01:31:46;9.82;;;6.15;;
53519;SDS011;39397;53.204;5.778;2023-12-07T01:34:12;11.60;;;6.50;;
53519;SDS011;39397;53.204;5.778;2023-12-07T01:36:38;9.82;;;6.10;;
53519;SDS011;39397;53.204;5.778;2023-12-07T01:39:03;11.38;;;6.45;;
53519;SDS011;39397;53.204;5.778;2023-12-07T01:41:29;9.98;;;5.97;;
53519;SDS011;39397;53.204;5.778;2023-12-07T01:43:56;10.75;;;6.28;;
53519;SDS011;39397;53.204;5.778;2023-12-07T01:46:21;11.55;;;6.07;;
53519;SDS011;39397;53.204;5.778;2023-12-07T01:48:47;11.98;;;6.43;;
53519;SDS011;39397;53.204;5.778;2023-12-07T01:51:14;9.82;;;6.28;;
53519;SDS011;39397;53.204;5.778;2023-12-07T01:53:41;8.95;;;6.15;;
53519;SDS011;39397;53.204;5.778;2023-12-07T01:56:07;8.80;;;6.15;;
53519;SDS011;39397;53.204;5.778;2023-12-07T01:58:35;13.25;;;6.75;;
53519;SDS011;39397;53.204;5.778;2023-12-07T02:01:02;11.18;;;5.80;;
53519;SDS011;39397;53.204;5.778;2023-12-07T02:03:29;10.55;;;6.75;;
53519;SDS011;39397;53.204;5.778;2023-12-07T02:05:55;9.32;;;6.05;;
53519;SDS011;39397;53.204;5.778;2023-12-07T02:08:23;9.57;;;6.53;;
53519;SDS011;39397;53.204;5.778;2023-12-07T02:10:49;11.48;;;6.90;;
53519;SDS011;39397;53.204;5.778;2023-12-07T02:13:14;9.40;;;6.78;;
53519;SDS011;39397;53.204;5.778;2023-12-07T02:15:40;11.45;;;7.22;;
53519;SDS011;39397;53.204;5.778;2023-12-07T02:18:10;10.55;;;6.50;;
53519;SDS011;39397;53.204;5.778;2023-12-07T02:20:45;11.60;;;6.55;;
53519;SDS011;39397;53.204;5.778;2023-12-07T02:23:17;10.43;;;6.82;;
53519;SDS011;39397;53.204;5.778;2023-12-07T02:25:51;10.80;;;6.15;;
53519;SDS011;39397;53.204;5.778;2023-12-07T02:28:18;11.30;;;6.82;;
53519;SDS011;39397;53.204;5.778;2023-12-07T02:30:45;10.80;;;6.13;;
53519;SDS011;39397;53.204;5.778;2023-12-07T02:33:11;10.75;;;6.25;;
53519;SDS011;39397;53.204;5.778;2023-12-07T02:35:37;12.73;;;6.00;;
53519;SDS011;39397;53.204;5.778;2023-12-07T02:38:05;10.60;;;6.28;;
53519;SDS011;39397;53.204;5.778;2023-12-07T02:40:32;9.43;;;5.95;;
53519;SDS011;39397;53.204;5.778;2023-12-07T02:42:59;8.32;;;5.97;;
53519;SDS011;39397;53.204;5.778;2023-12-07T02:45:26;8.95;;;5.70;;
53519;SDS011;39397;53.204;5.778;2023-12-07T02:47:52;10.45;;;5.03;;
53519;SDS011;39397;53.204;5.778;2023-12-07T02:50:19;10.02;;;5.65;;
53519;SDS011;39397;53.204;5.778;2023-12-07T02:52:44;8.73;;;5.13;;
53519;SDS011;39397;53.204;5.778;2023-12-07T02:55:10;8.77;;;5.60;;
53519;SDS011;39397;53.204;5.778;2023-12-07T02:57:36;10.07;;;5.03;;
53519;SDS011;39397;53.204;5.778;2023-12-07T03:00:03;10.38;;;5.40;;
53519;SDS011;39397;53.204;5.778;2023-12-07T03:02:33;7.30;;;4.70;;
53519;SDS011;39397;53.204;5.778;2023-12-07T03:05:00;7.53;;;4.97;;
53519;SDS011;39397;53.204;5.778;2023-12-07T03:07:26;9.05;;;4.50;;
53519;SDS011;39397;53.204;5.778;2023-12-07T03:09:52;6.88;;;4.53;;
53519;SDS011;39397;53.204;5.778;2023-12-07T03:12:17;9.25;;;5.30;;
53519;SDS011;39397;53.204;5.778;2023-12-07T03:14:43;9.52;;;5.30;;
53519;SDS011;39397;53.204;5.778;2023-12-07T03:17:09;7.85;;;4.88;;
53519;SDS011;39397;53.204;5.778;2023-12-07T03:19:38;8.73;;;5.38;;
53519;SDS011;39397;53.204;5.778;2023-12-07T03:22:04;9.20;;;4.78;;
53519;SDS011;39397;53.204;5.778;2023-12-07T03:24:32;9.73;;;4.80;;
53519;SDS011;39397;53.204;5.778;2023-12-07T03:26:59;10.27;;;5.35;;
53519;SDS011;39397;53.204;5.778;2023-12-07T03:29:25;10.13;;;5.32;;
53519;SDS011;39397;53.204;5.778;2023-12-07T03:31:51;9.80;;;5.60;;
53519;SDS011;39397;53.204;5.778;2023-12-07T03:34:16;8.73;;;5.57;;
53519;SDS011;39397;53.204;5.778;2023-12-07T03:36:45;11.00;;;5.85;;
53519;SDS011;39397;53.204;5.778;2023-12-07T03:39:11;9.20;;;5.95;;
53519;SDS011;39397;53.204;5.778;2023-12-07T03:41:43;10.55;;;6.40;;
53519;SDS011;39397;53.204;5.778;2023-12-07T03:44:09;8.63;;;5.72;;
53519;SDS011;39397;53.204;5.778;2023-12-07T03:46:35;10.50;;;5.80;;
53519;SDS011;39397;53.204;5.778;2023-12-07T03:49:01;10.55;;;6.22;;
53519;SDS011;39397;53.204;5.778;2023-12-07T03:51:27;10.75;;;6.07;;
53519;SDS011;39397;53.204;5.778;2023-12-07T03:53:53;12.57;;;6.50;;
53519;SDS011;39397;53.204;5.778;2023-12-07T03:56:26;10.85;;;6.57;;
53519;SDS011;39397;53.204;5.778;2023-12-07T03:58:53;11.67;;;6.80;;
53519;SDS011;39397;53.204;5.778;2023-12-07T04:01:22;10.27;;;5.68;;
53519;SDS011;39397;53.204;5.778;2023-12-07T04:03:50;9.90;;;5.85;;
53519;SDS011;39397;53.204;5.778;2023-12-07T04:06:16;8.23;;;5.45;;
53519;SDS011;39397;53.204;5.778;2023-12-07T04:08:42;8.95;;;5.90;;
53519;SDS011;39397;53.204;5.778;2023-12-07T04:11:08;9.02;;;6.10;;
53519;SDS011;39397;53.204;5.778;2023-12-07T04:13:34;9.27;;;6.18;;
53519;SDS011;39397;53.204;5.778;2023-12-07T04:15:59;9.40;;;6.70;;
53519;SDS011;39397;53.204;5.778;2023-12-07T04:18:25;10.25;;;6.70;;
53519;SDS011;39397;53.204;5.778;2023-12-07T04:20:51;10.50;;;6.35;;
53519;SDS011;39397;53.204;5.778;2023-12-07T04:23:17;11.57;;;7.03;;
53519;SDS011;39397;53.204;5.778;2023-12-07T04:25:42;9.88;;;6.57;;
53519;SDS011;39397;53.204;5.778;2023-12-07T04:28:08;11.93;;;7.30;;
53519;SDS011;39397;53.204;5.778;2023-12-07T04:30:34;12.63;;;6.45;;
53519;SDS011;39397;53.204;5.778;2023-12-07T04:33:00;11.18;;;6.97;;
53519;SDS011;39397;53.204;5.778;2023-12-07T04:35:26;10.38;;;6.72;;
53519;SDS011;39397;53.204;5.778;2023-12-07T04:37:53;10.27;;;7.38;;
53519;SDS011;39397;53.204;5.778;2023-12-07T04:40:19;11.25;;;7.07;;
53519;SDS011;39397;53.204;5.778;2023-12-07T04:42:45;10.75;;;6.97;;
53519;SDS011;39397;53.204;5.778;2023-12-07T04:45:11;11.10;;;6.85;;
53519;SDS011;39397;53.204;5.778;2023-12-07T04:47:37;10.45;;;6.40;;
53519;SDS011;39397;53.204;5.778;2023-12-07T04:50:03;9.93;;;6.38;;
53519;SDS011;39397;53.204;5.778;2023-12-07T04:52:29;12.27;;;7.10;;
53519;SDS011;39397;53.204;5.778;2023-12-07T04:54:55;13.10;;;7.45;;
53519;SDS011;39397;53.204;5.778;2023-12-07T04:57:21;9.30;;;6.45;;
53519;SDS011;39397;53.204;5.778;2023-12-07T04:59:46;9.50;;;6.47;;
53519;SDS011;39397;53.204;5.778;2023-12-07T05:02:15;10.05;;;6.57;;
53519;SDS011;39397;53.204;5.778;2023-12-07T05:04:42;9.85;;;6.72;;
53519;SDS011;39397;53.204;5.778;2023-12-07T05:07:08;10.30;;;6.72;;
53519;SDS011;39397;53.204;5.778;2023-12-07T05:09:34;10.93;;;6.95;;
53519;SDS011;39397;53.204;5.778;2023-12-07T05:12:00;11.40;;;6.60;;
53519;SDS011;39397;53.204;5.778;2023-12-07T05:14:26;11.52;;;6.82;;
53519;SDS011;39397;53.204;5.778;2023-12-07T05:16:52;15.18;;;8.77;;
53519;SDS011;39397;53.204;5.778;2023-12-07T05:19:23;13.20;;;7.15;;
53519;SDS011;39397;53.204;5.778;2023-12-07T05:21:49;12.73;;;8.27;;
53519;SDS011;39397;53.204;5.778;2023-12-07T05:24:16;12.18;;;7.72;;
53519;SDS011;39397;53.204;5.778;2023-12-07T05:26:42;14.00;;;9.32;;
53519;SDS011;39397;53.204;5.778;2023-12-07T05:29:09;13.27;;;8.57;;
53519;SDS011;39397;53.204;5.778;2023-12-07T05:31:35;15.65;;;8.27;;
53519;SDS011;39397;53.204;5.778;2023-12-07T05:34:01;13.45;;;8.50;;
53519;SDS011;39397;53.204;5.778;2023-12-07T05:36:27;14.10;;;8.35;;
53519;SDS011;39397;53.204;5.778;2023-12-07T05:38:54;17.02;;;10.18;;
53519;SDS011;39397;53.204;5.778;2023-12-07T05:41:20;14.13;;;9.60;;
53519;SDS011;39397;53.204;5.778;2023-12-07T05:43:46;15.73;;;10.02;;
53519;SDS011;39397;53.204;5.778;2023-12-07T05:46:11;15.77;;;8.30;;
53519;SDS011;39397;53.204;5.778;2023-12-07T05:48:38;16.52;;;10.65;;
53519;SDS011;39397;53.204;5.778;2023-12-07T05:51:04;15.73;;;9.65;;
53519;SDS011;39397;53.204;5.778;2023-12-07T05:53:30;14.30;;;8.73;;
53519;SDS011;39397;53.204;5.778;2023-12-07T05:55:59;17.40;;;10.32;;
53519;SDS011;39397;53.204;5.778;2023-12-07T05:58:24;17.42;;;10.15;;
53519;SDS011;39397;53.204;5.778;2023-12-07T06:00:50;16.77;;;9.35;;
53519;SDS011;39397;53.204;5.778;2023-12-07T06:03:16;17.02;;;9.05;;
53519;SDS011;39397;53.204;5.778;2023-12-07T06:05:41;17.02;;;10.80;;
53519;SDS011;39397;53.204;5.778;2023-12-07T06:08:08;17.88;;;11.00;;
53519;SDS011;39397;53.204;5.778;2023-12-07T06:10:34;19.17;;;10.55;;
53519;SDS011;39397;53.204;5.778;2023-12-07T06:13:00;17.05;;;9.68;;
53519;SDS011;39397;53.204;5.778;2023-12-07T06:15:26;17.40;;;9.93;;
53519;SDS011;39397;53.204;5.778;2023-12-07T06:17:53;17.25;;;11.02;;
53519;SDS011;39397;53.204;5.778;2023-12-07T06:20:19;17.23;;;10.18;;
53519;SDS011;39397;53.204;5.778;2023-12-07T06:22:45;22.70;;;10.98;;
53519;SDS011;39397;53.204;5.778;2023-12-07T06:25:11;18.67;;;11.57;;
53519;SDS011;39397;53.204;5.778;2023-12-07T06:27:38;17.38;;;10.80;;
53519;SDS011;39397;53.204;5.778;2023-12-07T06:30:04;21.02;;;13.25;;
53519;SDS011;39397;53.204;5.778;2023-12-07T06:32:31;21.95;;;13.48;;
53519;SDS011;39397;53.204;5.778;2023-12-07T06:34:57;23.38;;;14.13;;
53519;SDS011;39397;53.204;5.778;2023-12-07T06:37:23;24.92;;;14.90;;
53519;SDS011;39397;53.204;5.778;2023-12-07T06:39:49;25.10;;;14.43;;
53519;SDS011;39397;53.204;5.778;2023-12-07T06:42:15;23.65;;;14.30;;
53519;SDS011;39397;53.204;5.778;2023-12-07T06:44:48;31.27;;;16.27;;
53519;SDS011;39397;53.204;5.778;2023-12-07T06:47:17;20.88;;;13.30;;
53519;SDS011;39397;53.204;5.778;2023-12-07T06:49:43;21.23;;;12.63;;
53519;SDS011;39397;53.204;5.778;2023-12-07T06:52:11;20.40;;;12.35;;
53519;SDS011;39397;53.204;5.778;2023-12-07T06:54:37;25.85;;;13.23;;
53519;SDS011;39397;53.204;5.778;2023-12-07T06:57:04;25.27;;;13.20;;
53519;SDS011;39397;53.204;5.778;2023-12-07T06:59:32;24.85;;;13.75;;
53519;SDS011;39397;53.204;5.778;2023-12-07T07:01:58;22.23;;;12.93;;
53519;SDS011;39397;53.204;5.778;2023-12-07T07:04:24;22.83;;;13.52;;
53519;SDS011;39397;53.204;5.778;2023-12-07T07:06:50;24.33;;;13.75;;
53519;SDS011;39397;53.204;5.778;2023-12-07T07:09:17;25.23;;;14.27;;
53519;SDS011;39397;53.204;5.778;2023-12-07T07:11:46;20.95;;;13.38;;
53519;SDS011;39397;53.204;5.778;2023-12-07T07:14:13;24.85;;;13.93;;
53519;SDS011;39397;53.204;5.778;2023-12-07T07:16:38;23.42;;;14.18;;
53519;SDS011;39397;53.204;5.778;2023-12-07T07:19:04;29.27;;;14.25;;
53519;SDS011;39397;53.204;5.778;2023-12-07T07:21:30;23.48;;;13.95;;
53519;SDS011;39397;53.204;5.778;2023-12-07T07:23:56;28.00;;;15.07;;
53519;SDS011;39397;53.204;5.778;2023-12-07T07:26:22;25.83;;;15.05;;
53519;SDS011;39397;53.204;5.778;2023-12-07T07:28:50;23.85;;;14.95;;
53519;SDS011;39397;53.204;5.778;2023-12-07T07:31:17;26.73;;;14.75;;
53519;SDS011;39397;53.204;5.778;2023-12-07T07:33:43;27.55;;;16.02;;
53519;SDS011;39397;53.204;5.778;2023-12-07T07:36:09;25.67;;;14.45;;
53519;SDS011;39397;53.204;5.778;2023-12-07T07:38:36;29.42;;;15.23;;
53519;SDS011;39397;53.204;5.778;2023-12-07T07:41:03;29.30;;;16.55;;
53519;SDS011;39397;53.204;5.778;2023-12-07T07:47:23;30.90;;;17.30;;
53519;SDS011;39397;53.204;5.778;2023-12-07T07:49:49;28.35;;;15.73;;
53519;SDS011;39397;53.204;5.778;2023-12-07T07:52:15;34.22;;;17.75;;
53519;SDS011;39397;53.204;5.778;2023-12-07T07:54:43;29.02;;;16.73;;
53519;SDS011;39397;53.204;5.778;2023-12-07T07:57:09;36.03;;;18.67;;
53519;SDS011;39397;53.204;5.778;2023-12-07T07:59:35;40.35;;;19.85;;
53519;SDS011;39397;53.204;5.778;2023-12-07T08:02:00;36.15;;;19.33;;
53519;SDS011;39397;53.204;5.778;2023-12-07T08:04:26;33.00;;;17.73;;
53519;SDS011;39397;53.204;5.778;2023-12-07T08:06:51;38.25;;;19.23;;
53519;SDS011;39397;53.204;5.778;2023-12-07T08:09:17;33.63;;;17.83;;
53519;SDS011;39397;53.204;5.778;2023-12-07T08:11:43;39.65;;;19.42;;
53519;SDS011;39397;53.204;5.778;2023-12-07T08:14:08;47.63;;;20.95;;
53519;SDS011;39397;53.204;5.778;2023-12-07T08:16:34;45.15;;;20.25;;
53519;SDS011;39397;53.204;5.778;2023-12-07T08:19:00;35.88;;;19.90;;
53519;SDS011;39397;53.204;5.778;2023-12-07T08:21:27;37.03;;;19.80;;
53519;SDS011;39397;53.204;5.778;2023-12-07T08:23:54;41.08;;;20.52;;
53519;SDS011;39397;53.204;5.778;2023-12-07T08:26:21;37.85;;;18.85;;
53519;SDS011;39397;53.204;5.778;2023-12-07T08:28:47;41.38;;;20.30;;
53519;SDS011;39397;53.204;5.778;2023-12-07T08:31:12;38.42;;;19.60;;
53519;SDS011;39397;53.204;5.778;2023-12-07T08:33:38;41.78;;;20.58;;
53519;SDS011;39397;53.204;5.778;2023-12-07T08:36:04;39.90;;;19.15;;
53519;SDS011;39397;53.204;5.778;2023-12-07T08:38:31;37.55;;;19.95;;
53519;SDS011;39397;53.204;5.778;2023-12-07T08:40:57;43.75;;;21.38;;
53519;SDS011;39397;53.204;5.778;2023-12-07T08:43:23;38.05;;;19.80;;
53519;SDS011;39397;53.204;5.778;2023-12-07T08:45:50;43.22;;;22.65;;
53519;SDS011;39397;53.204;5.778;2023-12-07T08:48:19;45.58;;;22.05;;
53519;SDS011;39397;53.204;5.778;2023-12-07T08:50:45;35.55;;;18.98;;
53519;SDS011;39397;53.204;5.778;2023-12-07T08:53:11;38.55;;;20.38;;
53519;SDS011;39397;53.204;5.778;2023-12-07T08:55:37;43.75;;;22.75;;
53519;SDS011;39397;53.204;5.778;2023-12-07T08:58:03;38.80;;;22.30;;
53519;SDS011;39397;53.204;5.778;2023-12-07T09:00:32;36.95;;;19.52;;
53519;SDS011;39397;53.204;5.778;2023-12-07T09:03:01;41.92;;;22.73;;
53519;SDS011;39397;53.204;5.778;2023-12-07T09:05:27;39.45;;;21.90;;
53519;SDS011;39397;53.204;5.778;2023-12-07T09:07:53;36.20;;;20.02;;
53519;SDS011;39397;53.204;5.778;2023-12-07T09:10:19;38.03;;;21.33;;
53519;SDS011;39397;53.204;5.778;2023-12-07T09:12:45;37.40;;;19.77;;
53519;SDS011;39397;53.204;5.778;2023-12-07T09:15:10;34.83;;;21.23;;
53519;SDS011;39397;53.204;5.778;2023-12-07T09:17:37;34.13;;;18.85;;
53519;SDS011;39397;53.204;5.778;2023-12-07T09:20:04;38.00;;;19.80;;
53519;SDS011;39397;53.204;5.778;2023-12-07T09:22:32;34.28;;;20.02;;
53519;SDS011;39397;53.204;5.778;2023-12-07T09:24:59;40.13;;;20.70;;
53519;SDS011;39397;53.204;5.778;2023-12-07T09:27:25;31.90;;;19.90;;
53519;SDS011;39397;53.204;5.778;2023-12-07T09:29:50;31.10;;;18.50;;
53519;SDS011;39397;53.204;5.778;2023-12-07T09:32:16;34.55;;;19.60;;
53519;SDS011;39397;53.204;5.778;2023-12-07T09:34:42;32.75;;;19.23;;
53519;SDS011;39397;53.204;5.778;2023-12-07T09:37:08;33.85;;;20.67;;
53519;SDS011;39397;53.204;5.778;2023-12-07T09:39:35;32.42;;;19.65;;
53519;SDS011;39397;53.204;5.778;2023-12-07T09:42:01;30.95;;;19.38;;
53519;SDS011;39397;53.204;5.778;2023-12-07T09:44:27;35.60;;;19.63;;
53519;SDS011;39397;53.204;5.778;2023-12-07T09:46:53;29.65;;;17.92;;
53519;SDS011;39397;53.204;5.778;2023-12-07T09:49:19;34.22;;;19.70;;
53519;SDS011;39397;53.204;5.778;2023-12-07T09:51:46;28.33;;;18.20;;
53519;SDS011;39397;53.204;5.778;2023-12-07T09:54:12;32.20;;;19.10;;
53519;SDS011;39397;53.204;5.778;2023-12-07T09:56:39;30.60;;;18.00;;
53519;SDS011;39397;53.204;5.778;2023-12-07T09:59:05;28.52;;;18.27;;
53519;SDS011;39397;53.204;5.778;2023-12-07T10:01:32;27.52;;;18.33;;
53519;SDS011;39397;53.204;5.778;2023-12-07T10:04:19;29.48;;;17.92;;
53519;SDS011;39397;53.204;5.778;2023-12-07T10:06:51;26.73;;;17.17;;
53519;SDS011;39397;53.204;5.778;2023-12-07T10:09:19;26.63;;;17.35;;
53519;SDS011;39397;53.204;5.778;2023-12-07T10:11:46;28.48;;;18.02;;
53519;SDS011;39397;53.204;5.778;2023-12-07T10:14:12;25.88;;;17.20;;
53519;SDS011;39397;53.204;5.778;2023-12-07T10:16:38;25.77;;;17.38;;
53519;SDS011;39397;53.204;5.778;2023-12-07T10:19:17;29.02;;;17.73;;
53519;SDS011;39397;53.204;5.778;2023-12-07T10:21:46;23.60;;;16.65;;
53519;SDS011;39397;53.204;5.778;2023-12-07T10:24:12;23.58;;;16.80;;
53519;SDS011;39397;53.204;5.778;2023-12-07T10:26:38;24.48;;;16.42;;
53519;SDS011;39397;53.204;5.778;2023-12-07T10:29:05;28.88;;;17.60;;
53519;SDS011;39397;53.204;5.778;2023-12-07T10:31:31;26.92;;;18.52;;
53519;SDS011;39397;53.204;5.778;2023-12-07T10:33:58;27.20;;;18.20;;
53519;SDS011;39397;53.204;5.778;2023-12-07T10:36:25;26.40;;;18.60;;
53519;SDS011;39397;53.204;5.778;2023-12-07T10:38:51;28.05;;;19.25;;
53519;SDS011;39397;53.204;5.778;2023-12-07T10:41:18;30.40;;;18.50;;
53519;SDS011;39397;53.204;5.778;2023-12-07T10:43:48;26.85;;;18.05;;
53519;SDS011;39397;53.204;5.778;2023-12-07T10:46:19;25.27;;;18.23;;
53519;SDS011;39397;53.204;5.778;2023-12-07T10:48:47;25.27;;;18.13;;
53519;SDS011;39397;53.204;5.778;2023-12-07T10:51:16;25.48;;;17.42;;
53519;SDS011;39397;53.204;5.778;2023-12-07T10:53:51;26.85;;;18.42;;
53519;SDS011;39397;53.204;5.778;2023-12-07T10:56:23;25.65;;;18.08;;
53519;SDS011;39397;53.204;5.778;2023-12-07T10:58:55;28.55;;;19.25;;
53519;SDS011;39397;53.204;5.778;2023-12-07T11:01:22;30.40;;;20.88;;
53519;SDS011;39397;53.204;5.778;2023-12-07T11:03:51;30.33;;;20.63;;
53519;SDS011;39397;53.204;5.778;2023-12-07T11:06:19;29.30;;;19.60;;
53519;SDS011;39397;53.204;5.778;2023-12-07T11:08:52;29.60;;;20.50;;
53519;SDS011;39397;53.204;5.778;2023-12-07T11:11:34;30.95;;;20.05;;
53519;SDS011;39397;53.204;5.778;2023-12-07T11:14:08;29.17;;;19.88;;
53519;SDS011;39397;53.204;5.778;2023-12-07T11:16:41;27.80;;;19.73;;
53519;SDS011;39397;53.204;5.778;2023-12-07T11:21:58;30.23;;;20.00;;
53519;SDS011;39397;53.204;5.778;2023-12-07T11:24:28;25.55;;;19.35;;
53519;SDS011;39397;53.204;5.778;2023-12-07T11:26:57;28.88;;;18.67;;
53519;SDS011;39397;53.204;5.778;2023-12-07T11:29:28;29.23;;;18.35;;
53519;SDS011;39397;53.204;5.778;2023-12-07T11:32:04;28.92;;;19.00;;
53519;SDS011;39397;53.204;5.778;2023-12-07T11:34:38;31.02;;;19.15;;
53519;SDS011;39397;53.204;5.778;2023-12-07T11:37:08;28.17;;;20.30;;
53519;SDS011;39397;53.204;5.778;2023-12-07T11:39:36;25.60;;;17.70;;
53519;SDS011;39397;53.204;5.778;2023-12-07T11:42:18;26.02;;;19.67;;
53519;SDS011;39397;53.204;5.778;2023-12-07T11:44:47;26.40;;;19.15;;
53519;SDS011;39397;53.204;5.778;2023-12-07T11:47:20;25.73;;;19.17;;
53519;SDS011;39397;53.204;5.778;2023-12-07T11:49:46;29.23;;;20.73;;
53519;SDS011;39397;53.204;5.778;2023-12-07T11:52:13;27.40;;;19.60;;
53519;SDS011;39397;53.204;5.778;2023-12-07T11:54:39;31.90;;;20.25;;
53519;SDS011;39397;53.204;5.778;2023-12-07T11:57:06;29.27;;;19.17;;
53519;SDS011;39397;53.204;5.778;2023-12-07T11:59:32;28.60;;;19.90;;
53519;SDS011;39397;53.204;5.778;2023-12-07T12:02:01;27.38;;;18.88;;
53519;SDS011;39397;53.204;5.778;2023-12-07T12:04:29;28.10;;;19.67;;
53519;SDS011;39397;53.204;5.778;2023-12-07T12:06:55;29.67;;;19.02;;
53519;SDS011;39397;53.204;5.778;2023-12-07T12:09:24;28.88;;;18.88;;
53519;SDS011;39397;53.204;5.778;2023-12-07T12:11:50;27.08;;;18.58;;
53519;SDS011;39397;53.204;5.778;2023-12-07T12:14:16;25.50;;;19.35;;
53519;SDS011;39397;53.204;5.778;2023-12-07T12:16:48;29.30;;;20.15;;
53519;SDS011;39397;53.204;5.778;2023-12-07T12:19:15;30.98;;;21.80;;
53519;SDS011;39397;53.204;5.778;2023-12-07T12:21:41;30.30;;;20.83;;
53519;SDS011;39397;53.204;5.778;2023-12-07T12:24:08;27.40;;;19.63;;
53519;SDS011;39397;53.204;5.778;2023-12-07T12:26:35;29.02;;;21.05;;
53519;SDS011;39397;53.204;5.778;2023-12-07T12:29:05;31.08;;;20.98;;
53519;SDS011;39397;53.204;5.778;2023-12-07T12:31:32;30.75;;;20.95;;
53519;SDS011;39397;53.204;5.778;2023-12-07T12:34:00;31.95;;;20.85;;
53519;SDS011;39397;53.204;5.778;2023-12-07T12:36:27;29.65;;;21.02;;
53519;SDS011;39397;53.204;5.778;2023-12-07T12:38:54;30.77;;;20.08;;
53519;SDS011;39397;53.204;5.778;2023-12-07T12:41:21;42.97;;;21.02;;
53519;SDS011;39397;53.204;5.778;2023-12-07T12:43:48;44.50;;;19.15;;
53519;SDS011;39397;53.204;5.778;2023-12-07T12:46:15;53.40;;;18.83;;
53519;SDS011;39397;53.204;5.778;2023-12-07T12:48:57;56.25;;;17.38;;
53519;SDS011;39397;53.204;5.778;2023-12-07T12:51:28;34.75;;;17.27;;
53519;SDS011;39397;53.204;5.778;2023-12-07T12:53:58;55.92;;;20.42;;
53519;SDS011;39397;53.204;5.778;2023-12-07T12:56:24;45.10;;;17.65;;
53519;SDS011;39397;53.204;5.778;2023-12-07T12:58:52;30.05;;;16.58;;
53519;SDS011;39397;53.204;5.778;2023-12-07T13:01:21;53.97;;;17.83;;
53519;SDS011;39397;53.204;5.778;2023-12-07T13:03:47;78.40;;;18.42;;
53519;SDS011;39397;53.204;5.778;2023-12-07T13:06:14;62.40;;;18.20;;
53519;SDS011;39397;53.204;5.778;2023-12-07T13:08:41;59.92;;;17.48;;
53519;SDS011;39397;53.204;5.778;2023-12-07T13:11:14;49.35;;;18.63;;
53519;SDS011;39397;53.204;5.778;2023-12-07T13:13:41;37.40;;;19.13;;
53519;SDS011;39397;53.204;5.778;2023-12-07T13:16:07;48.13;;;19.98;;
53519;SDS011;39397;53.204;5.778;2023-12-07T13:18:33;32.50;;;19.40;;
53519;SDS011;39397;53.204;5.778;2023-12-07T13:20:58;38.42;;;21.50;;
53519;SDS011;39397;53.204;5.778;2023-12-07T13:23:25;58.25;;;24.00;;
53519;SDS011;39397;53.204;5.778;2023-12-07T13:25:51;63.33;;;23.15;;
53519;SDS011;39397;53.204;5.778;2023-12-07T13:28:17;68.55;;;23.55;;
53519;SDS011;39397;53.204;5.778;2023-12-07T13:30:44;44.42;;;20.88;;
53519;SDS011;39397;53.204;5.778;2023-12-07T13:33:10;39.92;;;22.48;;
53519;SDS011;39397;53.204;5.778;2023-12-07T13:35:36;62.92;;;21.15;;
53519;SDS011;39397;53.204;5.778;2023-12-07T13:38:01;85.38;;;23.33;;
53519;SDS011;39397;53.204;5.778;2023-12-07T13:40:27;85.70;;;23.48;;
53519;SDS011;39397;53.204;5.778;2023-12-07T13:42:53;59.55;;;22.63;;
53519;SDS011;39397;53.204;5.778;2023-12-07T13:45:19;66.85;;;21.92;;
53519;SDS011;39397;53.204;5.778;2023-12-07T13:47:45;66.50;;;22.23;;
53519;SDS011;39397;53.204;5.778;2023-12-07T13:50:11;72.13;;;21.27;;
53519;SDS011;39397;53.204;5.778;2023-12-07T13:52:38;63.78;;;21.95;;
53519;SDS011;39397;53.204;5.778;2023-12-07T13:55:04;41.08;;;20.13;;
53519;SDS011;39397;53.204;5.778;2023-12-07T13:57:30;50.25;;;20.70;;
53519;SDS011;39397;53.204;5.778;2023-12-07T13:59:56;58.00;;;20.20;;
53519;SDS011;39397;53.204;5.778;2023-12-07T14:02:22;47.00;;;19.45;;
53519;SDS011;39397;53.204;5.778;2023-12-07T14:04:48;47.30;;;20.05;;
53519;SDS011;39397;53.204;5.778;2023-12-07T14:07:16;45.70;;;20.08;;
53519;SDS011;39397;53.204;5.778;2023-12-07T14:09:44;51.75;;;23.00;;
53519;SDS011;39397;53.204;5.778;2023-12-07T14:12:11;59.83;;;22.23;;
53519;SDS011;39397;53.204;5.778;2023-12-07T14:14:41;68.60;;;22.27;;
53519;SDS011;39397;53.204;5.778;2023-12-07T14:17:14;49.13;;;22.05;;
53519;SDS011;39397;53.204;5.778;2023-12-07T14:19:41;48.55;;;20.60;;
53519;SDS011;39397;53.204;5.778;2023-12-07T14:22:07;50.03;;;20.90;;
53519;SDS011;39397;53.204;5.778;2023-12-07T14:24:34;60.35;;;21.45;;
53519;SDS011;39397;53.204;5.778;2023-12-07T14:27:02;51.42;;;22.77;;
53519;SDS011;39397;53.204;5.778;2023-12-07T14:29:29;36.05;;;19.80;;
53519;SDS011;39397;53.204;5.778;2023-12-07T14:31:54;48.95;;;20.50;;
53519;SDS011;39397;53.204;5.778;2023-12-07T14:34:20;42.17;;;21.80;;